Everglades, FL (34139)

4:11 PM EDT on August 25, 2016 (GMT -0400)
Port of the Islands | | Change Station

Elev 0 ft 25.95 °N, 81.51 °W | Updated 1 minute ago

Thunderstorms and Rain
Thunderstorm Rain Mist
86.5 °F
Feels Like 100 °F
N
3.2
Wind Variable Wind from SSW

Today
High -- | Low -- °F
--% Chance of Precip.
Yesterday
High -- | Low -- °F
Precip. -- in
Pressure 29.94 in
Visibility 4.0 miles
Clouds Few 3800 ft
Scattered Clouds 7000 ft
Mostly Cloudy 10000 ft
Heat Index 100 °F
Dew Point 79 °F
Humidity 78%
Rainfall 0.00 in
Snow Depth Not available.
7:03 AM 7:51 PM
Last Quarter, 42% visible
METAR KAPF 251953Z 27011KT 4SM TSRA BR FEW038 SCT070 BKN100 28/26 A2994 RMK AO2 LTG DSNT ALQDS SLP137 P0021 T02780256 $
Pressure 29.94 in
Visibility 4.0 miles
Clouds Few 3800 ft
Scattered Clouds 7000 ft
Mostly Cloudy 10000 ft
Heat Index 100 °F
Dew Point 79 °F
Humidity 78%
Rainfall 0.00 in
Snow Depth Not available.
7:03 AM 7:51 PM
Last Quarter, 42% visible
METAR KAPF 251953Z 27011KT 4SM TSRA BR FEW038 SCT070 BKN100 28/26 A2994 RMK AO2 LTG DSNT ALQDS SLP137 P0021 T02780256 $
A tropical disturbance pushing toward the Bahamas, is expected to develop into a tropical depression or storm, and will likely target Florida and the Gulf Coast this weekend into next week.

Right now, the disturbance remains a broad area of low pressure pushing through the Dominican Republic and Haiti, headed toward the southeast Bahamas. Rainfall totals over 3 inches (with locally higher amounts) are expected in HispaƱiola, particularly over elevated terrain.

10-Day Weather Forecast

Almanac

Astronomy

Aug. 25, 2016 Rise Set
Actual Time
Civil Twilight
Nautical Twilight
Astronomical Twilight
Moon
Length of Visible Light
Length of Day
Tomorrow will be .
, % of the Moon is Illuminated

Today's Extremes

State Highs State Lows

Community

WunderPhotos

Upload Photos

1,934,921 photos uploaded!

WunderBlog® & News

Nearby

Air Quality

  Air Quality AQ Index Pollutant
Not available.

Snow Depth

Station Depth Elevation

Earthquake Activity

City Distance Mag. Time & Date
Minimum magnitude displayed is 2.5.

Coastal Water Temperatures

Place Temperature

Stations

Nearby Weather Stations

Station Location Temp. Windchill Dew Point Humidity Wind Precip. Elev Updated Type
                   

Watches & Warnings

There are currently no watches in effect.